sensor_id;sensor_type;location;lat;lon;timestamp;P1;durP1;ratioP1;P2;durP2;ratioP2
22881;SDS011;11608;50.894;5.296;2022-07-29T00:01:14;20.25;;;18.65;;
22881;SDS011;11608;50.894;5.296;2022-07-29T00:03:40;19.55;;;18.08;;
22881;SDS011;11608;50.894;5.296;2022-07-29T00:06:06;19.75;;;18.02;;
22881;SDS011;11608;50.894;5.296;2022-07-29T00:08:33;20.58;;;19.00;;
22881;SDS011;11608;50.894;5.296;2022-07-29T00:10:59;20.17;;;18.52;;
22881;SDS011;11608;50.894;5.296;2022-07-29T00:13:25;19.52;;;18.08;;
22881;SDS011;11608;50.894;5.296;2022-07-29T00:15:51;20.70;;;19.10;;
22881;SDS011;11608;50.894;5.296;2022-07-29T00:18:17;20.17;;;18.52;;
22881;SDS011;11608;50.894;5.296;2022-07-29T00:20:43;19.85;;;18.40;;
22881;SDS011;11608;50.894;5.296;2022-07-29T00:23:09;21.20;;;19.65;;
22881;SDS011;11608;50.894;5.296;2022-07-29T00:25:35;20.60;;;18.90;;
22881;SDS011;11608;50.894;5.296;2022-07-29T00:28:01;20.70;;;18.95;;
22881;SDS011;11608;50.894;5.296;2022-07-29T00:30:27;20.13;;;18.42;;
22881;SDS011;11608;50.894;5.296;2022-07-29T00:32:53;21.65;;;19.75;;
22881;SDS011;11608;50.894;5.296;2022-07-29T00:35:19;20.35;;;18.73;;
22881;SDS011;11608;50.894;5.296;2022-07-29T00:38:03;21.90;;;20.10;;
22881;SDS011;11608;50.894;5.296;2022-07-29T00:40:30;21.33;;;19.58;;
22881;SDS011;11608;50.894;5.296;2022-07-29T00:42:56;21.55;;;19.67;;
22881;SDS011;11608;50.894;5.296;2022-07-29T00:45:22;21.52;;;19.70;;
22881;SDS011;11608;50.894;5.296;2022-07-29T00:47:48;21.63;;;20.08;;
22881;SDS011;11608;50.894;5.296;2022-07-29T00:50:14;22.42;;;19.98;;
22881;SDS011;11608;50.894;5.296;2022-07-29T00:52:41;21.40;;;19.70;;
22881;SDS011;11608;50.894;5.296;2022-07-29T00:55:11;21.83;;;19.75;;
22881;SDS011;11608;50.894;5.296;2022-07-29T00:57:38;21.38;;;19.40;;
22881;SDS011;11608;50.894;5.296;2022-07-29T01:00:04;21.52;;;19.58;;
22881;SDS011;11608;50.894;5.296;2022-07-29T01:02:31;20.98;;;19.33;;
22881;SDS011;11608;50.894;5.296;2022-07-29T01:04:57;21.48;;;19.58;;
22881;SDS011;11608;50.894;5.296;2022-07-29T01:07:24;21.00;;;19.20;;
22881;SDS011;11608;50.894;5.296;2022-07-29T01:09:51;20.40;;;19.10;;
22881;SDS011;11608;50.894;5.296;2022-07-29T01:12:25;20.98;;;19.17;;
22881;SDS011;11608;50.894;5.296;2022-07-29T01:14:53;20.92;;;19.02;;
22881;SDS011;11608;50.894;5.296;2022-07-29T01:20:08;21.13;;;19.45;;
22881;SDS011;11608;50.894;5.296;2022-07-29T01:30:13;21.48;;;19.67;;
22881;SDS011;11608;50.894;5.296;2022-07-29T01:32:39;20.77;;;19.30;;
22881;SDS011;11608;50.894;5.296;2022-07-29T01:40:02;20.83;;;19.33;;
22881;SDS011;11608;50.894;5.296;2022-07-29T01:42:34;20.05;;;18.60;;
22881;SDS011;11608;50.894;5.296;2022-07-29T01:47:31;20.52;;;19.00;;
22881;SDS011;11608;50.894;5.296;2022-07-29T01:49:58;21.05;;;19.33;;
22881;SDS011;11608;50.894;5.296;2022-07-29T01:52:34;20.17;;;18.65;;
22881;SDS011;11608;50.894;5.296;2022-07-29T01:55:13;20.77;;;19.00;;
22881;SDS011;11608;50.894;5.296;2022-07-29T01:57:39;19.95;;;18.55;;
22881;SDS011;11608;50.894;5.296;2022-07-29T02:00:07;20.92;;;19.27;;
22881;SDS011;11608;50.894;5.296;2022-07-29T02:02:34;20.83;;;18.92;;
22881;SDS011;11608;50.894;5.296;2022-07-29T02:05:01;19.75;;;18.15;;
22881;SDS011;11608;50.894;5.296;2022-07-29T02:07:28;21.60;;;19.65;;
22881;SDS011;11608;50.894;5.296;2022-07-29T02:09:55;20.42;;;18.75;;
22881;SDS011;11608;50.894;5.296;2022-07-29T02:12:22;20.80;;;19.20;;
22881;SDS011;11608;50.894;5.296;2022-07-29T02:14:50;20.08;;;18.60;;
22881;SDS011;11608;50.894;5.296;2022-07-29T02:17:20;20.55;;;18.95;;
22881;SDS011;11608;50.894;5.296;2022-07-29T02:19:47;20.00;;;18.33;;
22881;SDS011;11608;50.894;5.296;2022-07-29T02:22:14;19.73;;;18.20;;
22881;SDS011;11608;50.894;5.296;2022-07-29T02:24:40;21.10;;;19.30;;
22881;SDS011;11608;50.894;5.296;2022-07-29T02:27:06;19.85;;;18.55;;
22881;SDS011;11608;50.894;5.296;2022-07-29T02:29:33;19.83;;;18.30;;
22881;SDS011;11608;50.894;5.296;2022-07-29T02:32:00;21.10;;;19.25;;
22881;SDS011;11608;50.894;5.296;2022-07-29T02:34:26;20.02;;;18.30;;
22881;SDS011;11608;50.894;5.296;2022-07-29T02:36:52;19.90;;;18.48;;
22881;SDS011;11608;50.894;5.296;2022-07-29T02:39:20;20.38;;;18.63;;
22881;SDS011;11608;50.894;5.296;2022-07-29T02:41:47;20.88;;;19.42;;
22881;SDS011;11608;50.894;5.296;2022-07-29T02:44:15;20.48;;;18.92;;
22881;SDS011;11608;50.894;5.296;2022-07-29T02:46:44;20.63;;;19.17;;
22881;SDS011;11608;50.894;5.296;2022-07-29T02:51:49;20.75;;;19.08;;
22881;SDS011;11608;50.894;5.296;2022-07-29T02:54:22;21.13;;;19.52;;
22881;SDS011;11608;50.894;5.296;2022-07-29T02:56:49;21.58;;;19.98;;
22881;SDS011;11608;50.894;5.296;2022-07-29T02:59:18;20.88;;;19.27;;
22881;SDS011;11608;50.894;5.296;2022-07-29T03:01:47;20.88;;;19.17;;
22881;SDS011;11608;50.894;5.296;2022-07-29T03:04:13;21.70;;;19.90;;
22881;SDS011;11608;50.894;5.296;2022-07-29T03:06:40;20.50;;;18.70;;
22881;SDS011;11608;50.894;5.296;2022-07-29T03:09:07;20.80;;;19.20;;
22881;SDS011;11608;50.894;5.296;2022-07-29T03:11:34;20.35;;;18.73;;
22881;SDS011;11608;50.894;5.296;2022-07-29T03:14:00;20.58;;;19.02;;
22881;SDS011;11608;50.894;5.296;2022-07-29T03:16:26;21.63;;;19.52;;
22881;SDS011;11608;50.894;5.296;2022-07-29T03:18:52;21.67;;;20.08;;
22881;SDS011;11608;50.894;5.296;2022-07-29T03:21:18;21.73;;;19.92;;
22881;SDS011;11608;50.894;5.296;2022-07-29T03:23:45;20.75;;;19.38;;
22881;SDS011;11608;50.894;5.296;2022-07-29T03:26:11;20.70;;;19.20;;
22881;SDS011;11608;50.894;5.296;2022-07-29T03:28:37;20.20;;;18.90;;
22881;SDS011;11608;50.894;5.296;2022-07-29T03:31:03;21.00;;;19.48;;
22881;SDS011;11608;50.894;5.296;2022-07-29T03:33:29;22.35;;;20.40;;
22881;SDS011;11608;50.894;5.296;2022-07-29T03:35:56;21.27;;;19.85;;
22881;SDS011;11608;50.894;5.296;2022-07-29T03:38:23;21.10;;;19.60;;
22881;SDS011;11608;50.894;5.296;2022-07-29T03:40:54;21.45;;;19.90;;
22881;SDS011;11608;50.894;5.296;2022-07-29T03:43:21;21.58;;;19.88;;
22881;SDS011;11608;50.894;5.296;2022-07-29T03:45:49;21.95;;;20.35;;
22881;SDS011;11608;50.894;5.296;2022-07-29T03:48:17;20.73;;;19.33;;
22881;SDS011;11608;50.894;5.296;2022-07-29T03:50:45;21.08;;;19.65;;
22881;SDS011;11608;50.894;5.296;2022-07-29T03:53:11;21.35;;;19.70;;
22881;SDS011;11608;50.894;5.296;2022-07-29T03:55:41;21.40;;;19.90;;
22881;SDS011;11608;50.894;5.296;2022-07-29T03:58:09;21.00;;;19.48;;
22881;SDS011;11608;50.894;5.296;2022-07-29T04:00:35;20.52;;;19.13;;
22881;SDS011;11608;50.894;5.296;2022-07-29T04:03:03;21.45;;;20.00;;
22881;SDS011;11608;50.894;5.296;2022-07-29T04:05:29;21.70;;;20.10;;
22881;SDS011;11608;50.894;5.296;2022-07-29T04:07:55;21.55;;;19.75;;
22881;SDS011;11608;50.894;5.296;2022-07-29T04:10:21;20.25;;;18.85;;
22881;SDS011;11608;50.894;5.296;2022-07-29T04:12:50;21.13;;;19.27;;
22881;SDS011;11608;50.894;5.296;2022-07-29T04:15:17;21.05;;;19.45;;
22881;SDS011;11608;50.894;5.296;2022-07-29T04:17:43;22.13;;;20.33;;
22881;SDS011;11608;50.894;5.296;2022-07-29T04:20:09;22.42;;;20.70;;
22881;SDS011;11608;50.894;5.296;2022-07-29T04:22:38;21.60;;;20.10;;
22881;SDS011;11608;50.894;5.296;2022-07-29T04:25:04;22.73;;;20.67;;
22881;SDS011;11608;50.894;5.296;2022-07-29T04:27:30;23.17;;;21.13;;
22881;SDS011;11608;50.894;5.296;2022-07-29T04:29:56;22.75;;;21.23;;
22881;SDS011;11608;50.894;5.296;2022-07-29T04:32:22;22.85;;;21.15;;
22881;SDS011;11608;50.894;5.296;2022-07-29T04:34:48;22.70;;;20.80;;
22881;SDS011;11608;50.894;5.296;2022-07-29T04:37:14;21.08;;;19.63;;
22881;SDS011;11608;50.894;5.296;2022-07-29T04:39:40;20.73;;;19.10;;
22881;SDS011;11608;50.894;5.296;2022-07-29T04:42:06;20.85;;;19.35;;
22881;SDS011;11608;50.894;5.296;2022-07-29T04:44:32;21.60;;;19.95;;
22881;SDS011;11608;50.894;5.296;2022-07-29T04:46:58;21.52;;;19.92;;
22881;SDS011;11608;50.894;5.296;2022-07-29T04:49:24;21.40;;;19.48;;
22881;SDS011;11608;50.894;5.296;2022-07-29T04:51:50;22.38;;;20.33;;
22881;SDS011;11608;50.894;5.296;2022-07-29T04:54:16;21.52;;;19.70;;
22881;SDS011;11608;50.894;5.296;2022-07-29T04:56:42;21.70;;;19.70;;
22881;SDS011;11608;50.894;5.296;2022-07-29T04:59:08;22.00;;;20.42;;
22881;SDS011;11608;50.894;5.296;2022-07-29T05:01:34;21.80;;;19.92;;
22881;SDS011;11608;50.894;5.296;2022-07-29T05:04:00;22.08;;;20.38;;
22881;SDS011;11608;50.894;5.296;2022-07-29T05:06:26;22.00;;;20.15;;
22881;SDS011;11608;50.894;5.296;2022-07-29T05:08:52;22.23;;;20.52;;
22881;SDS011;11608;50.894;5.296;2022-07-29T05:11:18;22.23;;;20.45;;
22881;SDS011;11608;50.894;5.296;2022-07-29T05:13:44;22.85;;;20.98;;
22881;SDS011;11608;50.894;5.296;2022-07-29T05:16:10;22.35;;;20.42;;
22881;SDS011;11608;50.894;5.296;2022-07-29T05:18:36;22.63;;;20.83;;
22881;SDS011;11608;50.894;5.296;2022-07-29T05:21:02;22.15;;;20.40;;
22881;SDS011;11608;50.894;5.296;2022-07-29T05:23:28;21.92;;;19.95;;
22881;SDS011;11608;50.894;5.296;2022-07-29T05:25:54;22.58;;;20.80;;
22881;SDS011;11608;50.894;5.296;2022-07-29T05:28:20;21.70;;;20.00;;
22881;SDS011;11608;50.894;5.296;2022-07-29T05:30:46;21.58;;;19.83;;
22881;SDS011;11608;50.894;5.296;2022-07-29T05:33:13;22.20;;;19.95;;
22881;SDS011;11608;50.894;5.296;2022-07-29T05:35:39;22.67;;;20.88;;
22881;SDS011;11608;50.894;5.296;2022-07-29T05:38:05;22.48;;;20.65;;
22881;SDS011;11608;50.894;5.296;2022-07-29T05:40:31;23.27;;;21.58;;
22881;SDS011;11608;50.894;5.296;2022-07-29T05:42:57;22.52;;;20.77;;
22881;SDS011;11608;50.894;5.296;2022-07-29T05:45:23;23.55;;;21.75;;
22881;SDS011;11608;50.894;5.296;2022-07-29T05:47:49;23.67;;;21.70;;
22881;SDS011;11608;50.894;5.296;2022-07-29T05:50:15;22.10;;;20.40;;
22881;SDS011;11608;50.894;5.296;2022-07-29T05:52:41;22.23;;;20.48;;
22881;SDS011;11608;50.894;5.296;2022-07-29T05:55:07;22.33;;;20.33;;
22881;SDS011;11608;50.894;5.296;2022-07-29T05:57:33;20.70;;;19.02;;
22881;SDS011;11608;50.894;5.296;2022-07-29T05:59:59;22.80;;;21.02;;
22881;SDS011;11608;50.894;5.296;2022-07-29T06:02:26;22.13;;;20.10;;
22881;SDS011;11608;50.894;5.296;2022-07-29T06:04:52;21.73;;;19.90;;
22881;SDS011;11608;50.894;5.296;2022-07-29T06:07:18;21.55;;;19.90;;
22881;SDS011;11608;50.894;5.296;2022-07-29T06:09:44;22.23;;;20.52;;
22881;SDS011;11608;50.894;5.296;2022-07-29T06:12:10;20.92;;;19.45;;
22881;SDS011;11608;50.894;5.296;2022-07-29T06:14:36;21.55;;;20.05;;
22881;SDS011;11608;50.894;5.296;2022-07-29T06:17:03;21.17;;;19.67;;
22881;SDS011;11608;50.894;5.296;2022-07-29T06:19:30;21.33;;;19.67;;
22881;SDS011;11608;50.894;5.296;2022-07-29T06:21:56;22.00;;;20.20;;
22881;SDS011;11608;50.894;5.296;2022-07-29T06:24:22;21.63;;;19.67;;
22881;SDS011;11608;50.894;5.296;2022-07-29T06:26:48;22.05;;;20.33;;
22881;SDS011;11608;50.894;5.296;2022-07-29T06:29:14;23.30;;;21.23;;
22881;SDS011;11608;50.894;5.296;2022-07-29T06:31:40;22.70;;;21.00;;
22881;SDS011;11608;50.894;5.296;2022-07-29T06:34:06;21.67;;;20.00;;
22881;SDS011;11608;50.894;5.296;2022-07-29T06:36:36;21.10;;;19.45;;
22881;SDS011;11608;50.894;5.296;2022-07-29T06:39:06;21.33;;;19.63;;
22881;SDS011;11608;50.894;5.296;2022-07-29T06:41:32;22.13;;;20.42;;
22881;SDS011;11608;50.894;5.296;2022-07-29T06:43:58;22.27;;;20.63;;
22881;SDS011;11608;50.894;5.296;2022-07-29T06:46:24;21.95;;;20.25;;
22881;SDS011;11608;50.894;5.296;2022-07-29T06:48:51;22.67;;;20.70;;
22881;SDS011;11608;50.894;5.296;2022-07-29T06:51:17;19.67;;;18.23;;
22881;SDS011;11608;50.894;5.296;2022-07-29T06:53:43;22.38;;;20.58;;
22881;SDS011;11608;50.894;5.296;2022-07-29T06:56:09;21.33;;;19.83;;
22881;SDS011;11608;50.894;5.296;2022-07-29T06:58:38;22.38;;;20.45;;
22881;SDS011;11608;50.894;5.296;2022-07-29T07:01:04;22.08;;;20.10;;
22881;SDS011;11608;50.894;5.296;2022-07-29T07:03:31;22.17;;;20.55;;
22881;SDS011;11608;50.894;5.296;2022-07-29T07:05:57;21.80;;;20.20;;
22881;SDS011;11608;50.894;5.296;2022-07-29T07:08:23;21.23;;;19.60;;
22881;SDS011;11608;50.894;5.296;2022-07-29T07:10:50;22.63;;;20.85;;
22881;SDS011;11608;50.894;5.296;2022-07-29T07:13:16;21.45;;;19.63;;
22881;SDS011;11608;50.894;5.296;2022-07-29T07:15:42;20.98;;;19.38;;
22881;SDS011;11608;50.894;5.296;2022-07-29T07:18:08;21.58;;;19.98;;
22881;SDS011;11608;50.894;5.296;2022-07-29T07:20:35;21.60;;;19.95;;
22881;SDS011;11608;50.894;5.296;2022-07-29T07:23:01;21.80;;;20.10;;
22881;SDS011;11608;50.894;5.296;2022-07-29T07:25:27;22.10;;;20.33;;
22881;SDS011;11608;50.894;5.296;2022-07-29T07:27:53;22.17;;;20.58;;
22881;SDS011;11608;50.894;5.296;2022-07-29T07:30:19;24.13;;;21.95;;
22881;SDS011;11608;50.894;5.296;2022-07-29T07:32:46;23.10;;;21.50;;
22881;SDS011;11608;50.894;5.296;2022-07-29T07:35:12;21.25;;;19.77;;
22881;SDS011;11608;50.894;5.296;2022-07-29T07:37:38;23.42;;;21.65;;
22881;SDS011;11608;50.894;5.296;2022-07-29T07:40:06;21.20;;;19.80;;
22881;SDS011;11608;50.894;5.296;2022-07-29T07:42:32;22.67;;;21.08;;
22881;SDS011;11608;50.894;5.296;2022-07-29T07:44:58;22.77;;;21.13;;
22881;SDS011;11608;50.894;5.296;2022-07-29T07:47:24;22.38;;;20.77;;
22881;SDS011;11608;50.894;5.296;2022-07-29T07:49:51;23.38;;;21.55;;
22881;SDS011;11608;50.894;5.296;2022-07-29T07:52:17;23.13;;;21.27;;
22881;SDS011;11608;50.894;5.296;2022-07-29T07:54:44;23.30;;;21.60;;
22881;SDS011;11608;50.894;5.296;2022-07-29T07:57:11;22.30;;;20.75;;
22881;SDS011;11608;50.894;5.296;2022-07-29T07:59:37;23.67;;;21.90;;
22881;SDS011;11608;50.894;5.296;2022-07-29T08:02:03;24.50;;;22.05;;
22881;SDS011;11608;50.894;5.296;2022-07-29T08:04:29;22.63;;;20.73;;
22881;SDS011;11608;50.894;5.296;2022-07-29T08:06:56;23.40;;;21.55;;
22881;SDS011;11608;50.894;5.296;2022-07-29T08:09:22;21.98;;;20.50;;
22881;SDS011;11608;50.894;5.296;2022-07-29T08:11:48;23.60;;;21.70;;
22881;SDS011;11608;50.894;5.296;2022-07-29T08:14:14;22.77;;;21.08;;
22881;SDS011;11608;50.894;5.296;2022-07-29T08:16:41;22.58;;;20.83;;
22881;SDS011;11608;50.894;5.296;2022-07-29T08:19:07;23.65;;;21.85;;
22881;SDS011;11608;50.894;5.296;2022-07-29T08:21:34;22.17;;;20.52;;
22881;SDS011;11608;50.894;5.296;2022-07-29T08:24:00;23.30;;;21.48;;
22881;SDS011;11608;50.894;5.296;2022-07-29T08:26:45;23.85;;;21.83;;
22881;SDS011;11608;50.894;5.296;2022-07-29T08:29:11;22.58;;;20.98;;
22881;SDS011;11608;50.894;5.296;2022-07-29T08:31:38;23.80;;;21.85;;
22881;SDS011;11608;50.894;5.296;2022-07-29T08:34:04;23.48;;;21.70;;
22881;SDS011;11608;50.894;5.296;2022-07-29T08:36:30;23.80;;;21.88;;
22881;SDS011;11608;50.894;5.296;2022-07-29T08:38:57;23.23;;;21.20;;
22881;SDS011;11608;50.894;5.296;2022-07-29T08:41:23;22.73;;;20.83;;
22881;SDS011;11608;50.894;5.296;2022-07-29T08:43:49;22.23;;;20.40;;
22881;SDS011;11608;50.894;5.296;2022-07-29T08:46:17;21.73;;;20.00;;
22881;SDS011;11608;50.894;5.296;2022-07-29T08:48:43;22.23;;;20.73;;
22881;SDS011;11608;50.894;5.296;2022-07-29T08:51:12;21.33;;;19.90;;
22881;SDS011;11608;50.894;5.296;2022-07-29T08:53:40;23.50;;;21.58;;
22881;SDS011;11608;50.894;5.296;2022-07-29T08:56:07;22.60;;;21.00;;
22881;SDS011;11608;50.894;5.296;2022-07-29T08:58:36;21.85;;;20.25;;
22881;SDS011;11608;50.894;5.296;2022-07-29T09:01:02;22.77;;;21.17;;
22881;SDS011;11608;50.894;5.296;2022-07-29T09:03:32;23.05;;;21.40;;
22881;SDS011;11608;50.894;5.296;2022-07-29T09:06:00;22.55;;;20.85;;
22881;SDS011;11608;50.894;5.296;2022-07-29T09:08:26;22.17;;;20.52;;
22881;SDS011;11608;50.894;5.296;2022-07-29T09:10:53;21.92;;;20.42;;
22881;SDS011;11608;50.894;5.296;2022-07-29T09:13:20;21.20;;;19.80;;
22881;SDS011;11608;50.894;5.296;2022-07-29T09:15:46;22.50;;;20.90;;
22881;SDS011;11608;50.894;5.296;2022-07-29T09:18:12;22.50;;;20.70;;
22881;SDS011;11608;50.894;5.296;2022-07-29T09:20:58;20.13;;;18.73;;
22881;SDS011;11608;50.894;5.296;2022-07-29T09:26:28;22.40;;;20.63;;
22881;SDS011;11608;50.894;5.296;2022-07-29T09:28:55;22.60;;;20.70;;
22881;SDS011;11608;50.894;5.296;2022-07-29T09:31:26;21.45;;;20.00;;
22881;SDS011;11608;50.894;5.296;2022-07-29T09:33:58;22.90;;;21.10;;
22881;SDS011;11608;50.894;5.296;2022-07-29T09:36:25;22.27;;;20.77;;
22881;SDS011;11608;50.894;5.296;2022-07-29T09:39:00;21.60;;;20.05;;
22881;SDS011;11608;50.894;5.296;2022-07-29T09:41:27;21.67;;;19.83;;
22881;SDS011;11608;50.894;5.296;2022-07-29T09:43:57;22.23;;;20.50;;
22881;SDS011;11608;50.894;5.296;2022-07-29T09:46:23;22.35;;;20.60;;
22881;SDS011;11608;50.894;5.296;2022-07-29T09:49:32;21.50;;;19.88;;
22881;SDS011;11608;50.894;5.296;2022-07-29T09:51:39;21.75;;;20.08;;
22881;SDS011;11608;50.894;5.296;2022-07-29T09:54:22;22.45;;;20.50;;
22881;SDS011;11608;50.894;5.296;2022-07-29T09:56:48;21.00;;;19.60;;
22881;SDS011;11608;50.894;5.296;2022-07-29T09:59:14;22.48;;;20.80;;
22881;SDS011;11608;50.894;5.296;2022-07-29T10:01:41;21.58;;;20.02;;
22881;SDS011;11608;50.894;5.296;2022-07-29T10:04:07;22.48;;;20.88;;
22881;SDS011;11608;50.894;5.296;2022-07-29T10:06:33;22.90;;;21.00;;
22881;SDS011;11608;50.894;5.296;2022-07-29T10:09:11;22.20;;;20.52;;
22881;SDS011;11608;50.894;5.296;2022-07-29T10:11:37;21.92;;;20.13;;
22881;SDS011;11608;50.894;5.296;2022-07-29T10:14:03;21.52;;;20.02;;
22881;SDS011;11608;50.894;5.296;2022-07-29T10:16:30;21.77;;;20.15;;
22881;SDS011;11608;50.894;5.296;2022-07-29T10:18:59;22.20;;;20.63;;
22881;SDS011;11608;50.894;5.296;2022-07-29T10:21:26;21.58;;;20.15;;
22881;SDS011;11608;50.894;5.296;2022-07-29T10:23:55;20.88;;;19.38;;
22881;SDS011;11608;50.894;5.296;2022-07-29T10:26:22;21.70;;;19.90;;
22881;SDS011;11608;50.894;5.296;2022-07-29T10:28:48;20.63;;;19.13;;
22881;SDS011;11608;50.894;5.296;2022-07-29T10:31:16;21.40;;;19.90;;
22881;SDS011;11608;50.894;5.296;2022-07-29T10:33:54;21.27;;;19.77;;
22881;SDS011;11608;50.894;5.296;2022-07-29T10:44:21;21.25;;;19.75;;
22881;SDS011;11608;50.894;5.296;2022-07-29T10:46:48;21.00;;;19.50;;
22881;SDS011;11608;50.894;5.296;2022-07-29T10:49:16;20.85;;;19.23;;
22881;SDS011;11608;50.894;5.296;2022-07-29T10:59:46;21.17;;;19.40;;
22881;SDS011;11608;50.894;5.296;2022-07-29T11:07:23;20.35;;;18.70;;
22881;SDS011;11608;50.894;5.296;2022-07-29T11:18:02;20.88;;;19.20;;
22881;SDS011;11608;50.894;5.296;2022-07-29T11:20:32;20.92;;;19.35;;
22881;SDS011;11608;50.894;5.296;2022-07-29T11:22:59;20.15;;;18.63;;
22881;SDS011;11608;50.894;5.296;2022-07-29T11:25:25;19.75;;;18.38;;
22881;SDS011;11608;50.894;5.296;2022-07-29T11:28:07;20.17;;;18.70;;
22881;SDS011;11608;50.894;5.296;2022-07-29T11:30:49;19.80;;;18.52;;
22881;SDS011;11608;50.894;5.296;2022-07-29T11:33:32;21.23;;;19.73;;
22881;SDS011;11608;50.894;5.296;2022-07-29T11:36:06;21.17;;;19.58;;
22881;SDS011;11608;50.894;5.296;2022-07-29T11:38:33;21.02;;;19.52;;
22881;SDS011;11608;50.894;5.296;2022-07-29T11:43:50;20.85;;;19.35;;
22881;SDS011;11608;50.894;5.296;2022-07-29T11:49:02;20.40;;;19.00;;
22881;SDS011;11608;50.894;5.296;2022-07-29T11:51:29;21.08;;;19.67;;
22881;SDS011;11608;50.894;5.296;2022-07-29T11:53:56;21.08;;;19.40;;
22881;SDS011;11608;50.894;5.296;2022-07-29T11:56:23;20.85;;;19.45;;
22881;SDS011;11608;50.894;5.296;2022-07-29T11:59:00;21.05;;;19.65;;
22881;SDS011;11608;50.894;5.296;2022-07-29T12:01:29;20.17;;;18.77;;
22881;SDS011;11608;50.894;5.296;2022-07-29T12:04:04;21.10;;;19.60;;
22881;SDS011;11608;50.894;5.296;2022-07-29T12:06:31;20.50;;;19.13;;
22881;SDS011;11608;50.894;5.296;2022-07-29T12:08:58;20.23;;;18.90;;
22881;SDS011;11608;50.894;5.296;2022-07-29T12:11:25;21.35;;;19.83;;
22881;SDS011;11608;50.894;5.296;2022-07-29T12:13:51;21.63;;;19.90;;
22881;SDS011;11608;50.894;5.296;2022-07-29T12:16:17;20.67;;;19.25;;
22881;SDS011;11608;50.894;5.296;2022-07-29T12:18:54;21.05;;;19.55;;
22881;SDS011;11608;50.894;5.296;2022-07-29T12:21:20;21.48;;;19.85;;
22881;SDS011;11608;50.894;5.296;2022-07-29T12:23:53;20.90;;;19.55;;
22881;SDS011;11608;50.894;5.296;2022-07-29T12:26:20;23.48;;;21.73;;
22881;SDS011;11608;50.894;5.296;2022-07-29T12:28:46;20.90;;;19.45;;
22881;SDS011;11608;50.894;5.296;2022-07-29T12:31:15;20.52;;;18.98;;
22881;SDS011;11608;50.894;5.296;2022-07-29T12:33:41;20.75;;;19.13;;
22881;SDS011;11608;50.894;5.296;2022-07-29T12:36:07;20.80;;;19.17;;
22881;SDS011;11608;50.894;5.296;2022-07-29T12:38:34;22.65;;;20.77;;
22881;SDS011;11608;50.894;5.296;2022-07-29T12:41:01;21.23;;;19.73;;
22881;SDS011;11608;50.894;5.296;2022-07-29T12:43:27;20.92;;;19.27;;
22881;SDS011;11608;50.894;5.296;2022-07-29T12:45:54;21.05;;;19.55;;
22881;SDS011;11608;50.894;5.296;2022-07-29T12:48:36;21.73;;;20.33;;
22881;SDS011;11608;50.894;5.296;2022-07-29T12:51:03;21.40;;;19.90;;
22881;SDS011;11608;50.894;5.296;2022-07-29T12:53:30;20.40;;;19.02;;
22881;SDS011;11608;50.894;5.296;2022-07-29T12:55:57;20.33;;;19.00;;
22881;SDS011;11608;50.894;5.296;2022-07-29T12:58:27;20.95;;;19.35;;
22881;SDS011;11608;50.894;5.296;2022-07-29T13:03:29;21.85;;;20.35;;
22881;SDS011;11608;50.894;5.296;2022-07-29T13:05:55;20.52;;;19.17;;
22881;SDS011;11608;50.894;5.296;2022-07-29T13:08:21;20.60;;;19.20;;
22881;SDS011;11608;50.894;5.296;2022-07-29T13:10:47;22.00;;;20.60;;
22881;SDS011;11608;50.894;5.296;2022-07-29T13:13:14;21.55;;;20.02;;
22881;SDS011;11608;50.894;5.296;2022-07-29T13:15:43;21.27;;;19.80;;
22881;SDS011;11608;50.894;5.296;2022-07-29T13:18:27;21.25;;;19.65;;
22881;SDS011;11608;50.894;5.296;2022-07-29T13:20:54;20.00;;;18.67;;
22881;SDS011;11608;50.894;5.296;2022-07-29T13:23:20;19.40;;;17.98;;
22881;SDS011;11608;50.894;5.296;2022-07-29T13:25:46;19.67;;;18.40;;
22881;SDS011;11608;50.894;5.296;2022-07-29T13:28:12;19.92;;;18.42;;
22881;SDS011;11608;50.894;5.296;2022-07-29T13:30:39;19.92;;;18.63;;
22881;SDS011;11608;50.894;5.296;2022-07-29T13:33:06;21.27;;;19.63;;
22881;SDS011;11608;50.894;5.296;2022-07-29T13:35:32;20.38;;;19.00;;
22881;SDS011;11608;50.894;5.296;2022-07-29T13:37:58;20.58;;;19.15;;
22881;SDS011;11608;50.894;5.296;2022-07-29T13:40:24;20.30;;;18.88;;
22881;SDS011;11608;50.894;5.296;2022-07-29T13:42:50;20.88;;;19.42;;
22881;SDS011;11608;50.894;5.296;2022-07-29T13:45:16;20.38;;;19.02;;
22881;SDS011;11608;50.894;5.296;2022-07-29T13:47:43;20.55;;;19.23;;
22881;SDS011;11608;50.894;5.296;2022-07-29T13:50:09;20.40;;;18.83;;
22881;SDS011;11608;50.894;5.296;2022-07-29T13:52:35;20.20;;;18.90;;
22881;SDS011;11608;50.894;5.296;2022-07-29T13:55:02;20.20;;;18.70;;
22881;SDS011;11608;50.894;5.296;2022-07-29T13:57:28;19.23;;;17.98;;
22881;SDS011;11608;50.894;5.296;2022-07-29T13:59:55;20.38;;;18.83;;
22881;SDS011;11608;50.894;5.296;2022-07-29T14:02:21;19.77;;;18.17;;
22881;SDS011;11608;50.894;5.296;2022-07-29T14:04:47;18.40;;;17.20;;
22881;SDS011;11608;50.894;5.296;2022-07-29T14:07:13;18.85;;;17.65;;
22881;SDS011;11608;50.894;5.296;2022-07-29T14:09:39;18.55;;;17.33;;
22881;SDS011;11608;50.894;5.296;2022-07-29T14:12:05;19.15;;;17.65;;
22881;SDS011;11608;50.894;5.296;2022-07-29T14:14:31;17.83;;;16.60;;
22881;SDS011;11608;50.894;5.296;2022-07-29T14:16:57;19.63;;;18.02;;
22881;SDS011;11608;50.894;5.296;2022-07-29T14:19:24;19.13;;;17.75;;
22881;SDS011;11608;50.894;5.296;2022-07-29T14:21:50;17.45;;;16.25;;
22881;SDS011;11608;50.894;5.296;2022-07-29T14:24:16;17.52;;;16.42;;
22881;SDS011;11608;50.894;5.296;2022-07-29T14:26:42;18.70;;;17.20;;
22881;SDS011;11608;50.894;5.296;2022-07-29T14:29:08;19.65;;;18.15;;
22881;SDS011;11608;50.894;5.296;2022-07-29T14:31:34;20.02;;;18.30;;
22881;SDS011;11608;50.894;5.296;2022-07-29T14:34:00;20.40;;;18.73;;
22881;SDS011;11608;50.894;5.296;2022-07-29T14:36:26;18.88;;;17.27;;
22881;SDS011;11608;50.894;5.296;2022-07-29T14:38:52;19.50;;;17.83;;
22881;SDS011;11608;50.894;5.296;2022-07-29T14:41:18;19.25;;;17.85;;
22881;SDS011;11608;50.894;5.296;2022-07-29T14:43:44;19.52;;;18.13;;
22881;SDS011;11608;50.894;5.296;2022-07-29T14:46:10;18.65;;;17.38;;
22881;SDS011;11608;50.894;5.296;2022-07-29T14:48:36;19.92;;;18.40;;
22881;SDS011;11608;50.894;5.296;2022-07-29T14:51:02;19.73;;;18.42;;
22881;SDS011;11608;50.894;5.296;2022-07-29T14:53:28;19.50;;;18.10;;
22881;SDS011;11608;50.894;5.296;2022-07-29T14:55:54;20.13;;;18.48;;
22881;SDS011;11608;50.894;5.296;2022-07-29T14:58:20;18.70;;;17.50;;
22881;SDS011;11608;50.894;5.296;2022-07-29T15:00:47;18.63;;;17.30;;
22881;SDS011;11608;50.894;5.296;2022-07-29T15:03:13;18.38;;;17.17;;
22881;SDS011;11608;50.894;5.296;2022-07-29T15:05:39;19.08;;;17.67;;
22881;SDS011;11608;50.894;5.296;2022-07-29T15:08:06;18.65;;;17.35;;
22881;SDS011;11608;50.894;5.296;2022-07-29T15:10:33;18.38;;;17.08;;
22881;SDS011;11608;50.894;5.296;2022-07-29T15:12:59;19.27;;;17.65;;
22881;SDS011;11608;50.894;5.296;2022-07-29T15:15:25;18.80;;;17.40;;
22881;SDS011;11608;50.894;5.296;2022-07-29T15:17:51;19.00;;;17.70;;
22881;SDS011;11608;50.894;5.296;2022-07-29T15:20:17;19.52;;;17.90;;
22881;SDS011;11608;50.894;5.296;2022-07-29T15:22:43;19.45;;;17.63;;